createdAt,value
2017-04-15T00:00:28.768Z,74.30
2017-04-15T00:01:28.790Z,73.50
2017-04-15T00:02:28.932Z,73.40
2017-04-15T00:03:28.959Z,73.10
2017-04-15T00:04:29.168Z,73.10
2017-04-15T00:05:29.618Z,73.40
2017-04-15T00:06:29.752Z,73.30
2017-04-15T00:07:29.905Z,73.00
2017-04-15T00:08:29.921Z,73.10
2017-04-15T00:09:29.941Z,72.40
2017-04-15T00:10:30.394Z,72.70
2017-04-15T00:11:30.491Z,72.70
2017-04-15T00:12:30.604Z,73.10
2017-04-15T00:13:30.765Z,72.50
2017-04-15T00:14:30.759Z,72.40
2017-04-15T00:15:32.089Z,72.40
2017-04-15T00:16:32.905Z,72.30
2017-04-15T00:17:33.387Z,72.50
2017-04-15T00:18:33.389Z,72.00
2017-04-15T00:19:33.555Z,71.50
2017-04-15T00:20:33.850Z,71.50
2017-04-15T00:21:33.877Z,71.60
2017-04-15T00:22:34.125Z,72.00
2017-04-15T00:23:35.291Z,71.70
2017-04-15T00:24:35.578Z,71.70
2017-04-15T00:25:36.142Z,71.50
2017-04-15T00:26:37.072Z,71.40
2017-04-15T00:27:37.098Z,71.30
2017-04-15T00:28:37.410Z,71.30
2017-04-15T00:29:38.005Z,71.30
2017-04-15T00:30:38.461Z,71.20
2017-04-15T00:31:38.509Z,71.50
2017-04-15T00:32:38.687Z,71.00
2017-04-15T00:33:39.402Z,70.60
2017-04-15T00:34:39.618Z,70.60
2017-04-15T00:35:39.947Z,70.80
2017-04-15T00:36:40.255Z,71.10
2017-04-15T00:37:43.297Z,70.40
2017-04-15T00:38:44.129Z,70.60
2017-04-15T00:39:44.173Z,70.40
2017-04-15T00:40:44.655Z,70.50
2017-04-15T00:41:44.691Z,70.80
2017-04-15T00:42:44.718Z,70.80
2017-04-15T00:43:44.876Z,70.90
2017-04-15T00:44:44.905Z,70.50
2017-04-15T00:45:45.333Z,69.90
2017-04-15T00:46:45.518Z,70.10
2017-04-15T00:47:45.647Z,70.20
2017-04-15T00:48:45.742Z,70.60
2017-04-15T00:49:45.792Z,70.10
2017-04-15T00:50:46.185Z,70.20
2017-04-15T00:51:46.268Z,70.10
2017-04-15T00:52:46.291Z,68.80
2017-04-15T00:53:46.291Z,69.30
2017-04-15T00:54:46.303Z,69.10
2017-04-15T00:55:46.721Z,69.40
2017-04-15T00:56:47.495Z,69.20
2017-04-15T00:57:54.298Z,69.40
2017-04-15T00:58:54.534Z,69.00
2017-04-15T00:59:54.611Z,69.30
2017-04-15T01:00:54.774Z,69.10
2017-04-15T01:01:54.813Z,68.90
2017-04-15T01:02:54.885Z,69.40
2017-04-15T01:03:55.918Z,69.60
2017-04-15T01:04:55.952Z,69.40
2017-04-15T01:05:57.229Z,69.70
2017-04-15T01:06:57.269Z,69.90
2017-04-15T01:07:57.411Z,69.60
2017-04-15T01:08:57.478Z,70.10
2017-04-15T01:09:57.505Z,69.80
2017-04-15T01:10:57.930Z,69.70
2017-04-15T01:11:58.003Z,69.70
2017-04-15T01:12:58.130Z,69.70
2017-04-15T01:13:58.207Z,70.00
2017-04-15T01:14:58.199Z,70.20
2017-04-15T01:15:58.636Z,70.10
2017-04-15T01:16:59.421Z,70.10
2017-04-15T01:18:00.255Z,70.40
2017-04-15T01:19:00.296Z,70.40
2017-04-15T01:20:00.579Z,70.50
2017-04-15T01:21:00.914Z,70.70
2017-04-15T01:22:01.023Z,70.60
2017-04-15T01:23:01.055Z,70.10
2017-04-15T01:24:01.114Z,69.90
2017-04-15T01:25:01.218Z,70.10
2017-04-15T01:26:01.545Z,70.50
2017-04-15T01:27:01.613Z,69.90
2017-04-15T01:28:01.621Z,70.10
2017-04-15T01:29:01.656Z,70.00
2017-04-15T01:30:01.723Z,70.10
2017-04-15T01:31:02.090Z,69.70
2017-04-15T01:32:02.157Z,70.00
2017-04-15T01:33:02.154Z,69.80
2017-04-15T01:34:02.169Z,69.70
2017-04-15T01:35:02.196Z,70.20
2017-04-15T01:36:03.302Z,69.80
2017-04-15T01:37:03.345Z,70.20
2017-04-15T01:38:03.369Z,70.50
2017-04-15T01:39:03.414Z,70.30
2017-04-15T01:40:03.518Z,70.30
2017-04-15T01:41:03.882Z,70.00
2017-04-15T01:42:03.917Z,70.10
2017-04-15T01:43:04.743Z,70.10
2017-04-15T01:44:04.813Z,70.30
2017-04-15T01:45:04.903Z,69.90
2017-04-15T01:46:05.262Z,70.30
2017-04-15T01:47:05.348Z,70.10
2017-04-15T01:48:05.462Z,70.20
2017-04-15T01:49:05.570Z,70.20
2017-04-15T01:50:05.630Z,70.10
2017-04-15T01:51:06.012Z,70.20
2017-04-15T01:52:06.028Z,70.20
2017-04-15T01:53:06.157Z,70.00
2017-04-15T01:54:06.247Z,69.80
2017-04-15T01:55:06.432Z,70.30
2017-04-15T01:56:06.876Z,70.30
2017-04-15T01:57:06.911Z,70.30
2017-04-15T01:58:06.906Z,70.40
2017-04-15T01:59:06.960Z,70.20
2017-04-15T02:00:07.138Z,70.20
2017-04-15T02:01:07.515Z,70.70
2017-04-15T02:02:07.553Z,70.70
2017-04-15T02:03:07.591Z,70.70
2017-04-15T02:04:07.672Z,70.80
2017-04-15T02:05:07.728Z,70.30
2017-04-15T02:06:08.047Z,69.60
2017-04-15T02:07:08.134Z,70.50
2017-04-15T02:08:08.222Z,70.00
2017-04-15T02:09:08.234Z,70.00
2017-04-15T02:10:08.273Z,70.50
2017-04-15T02:11:08.586Z,70.80
2017-04-15T02:12:08.649Z,70.30
2017-04-15T02:13:08.667Z,70.50
2017-04-15T02:14:08.643Z,70.00
2017-04-15T02:15:08.712Z,70.10
2017-04-15T02:16:09.251Z,70.40
2017-04-15T02:17:10.024Z,69.80
2017-04-15T02:18:10.099Z,69.90
2017-04-15T02:19:10.150Z,70.00
2017-04-15T02:20:10.220Z,69.50
2017-04-15T02:21:10.518Z,69.50
2017-04-15T02:22:10.520Z,70.10
2017-04-15T02:23:11.278Z,70.10
2017-04-15T02:24:11.326Z,69.80
2017-04-15T02:25:11.393Z,69.70
2017-04-15T02:26:11.782Z,70.30
2017-04-15T02:27:11.877Z,70.50
2017-04-15T02:28:11.915Z,71.00
2017-04-15T02:29:11.956Z,70.20
2017-04-15T02:30:12.105Z,69.60
2017-04-15T02:31:12.549Z,69.50
2017-04-15T02:32:12.709Z,70.30
2017-04-15T02:33:12.770Z,70.70
2017-04-15T02:34:12.786Z,71.10
2017-04-15T02:35:12.892Z,70.80
2017-04-15T02:36:13.384Z,71.10
2017-04-15T02:37:13.478Z,71.50
2017-04-15T02:38:13.590Z,71.00
2017-04-15T02:39:14.494Z,71.40
2017-04-15T02:40:14.546Z,71.40
2017-04-15T02:41:14.936Z,72.60
2017-04-15T02:42:14.956Z,71.20
2017-04-15T02:43:15.055Z,71.40
2017-04-15T02:44:15.107Z,72.40
2017-04-15T02:45:15.170Z,72.00
2017-04-15T02:46:15.809Z,72.50
2017-04-15T02:47:15.865Z,72.40
2017-04-15T02:48:15.919Z,72.50
2017-04-15T02:49:16.789Z,72.50
2017-04-15T02:50:16.910Z,72.40
2017-04-15T02:51:17.455Z,72.10
2017-04-15T02:52:17.492Z,72.60
2017-04-15T02:53:17.527Z,73.40
2017-04-15T02:54:18.625Z,72.70
2017-04-15T02:55:19.396Z,72.40
2017-04-15T02:56:19.749Z,72.60
2017-04-15T02:57:19.866Z,72.90
2017-04-15T02:58:20.724Z,73.50
2017-04-15T02:59:20.719Z,73.60
2017-04-15T03:00:20.807Z,74.20
2017-04-15T03:01:21.201Z,74.70
2017-04-15T03:02:21.233Z,74.70
2017-04-15T03:03:21.301Z,75.80
2017-04-15T03:04:21.400Z,75.10
2017-04-15T03:05:21.358Z,74.20
2017-04-15T03:06:21.862Z,75.20
2017-04-15T03:07:22.659Z,75.80
2017-04-15T03:08:22.748Z,75.40
2017-04-15T03:09:22.764Z,75.70
2017-04-15T03:10:22.792Z,75.70
2017-04-15T03:11:23.227Z,76.10
2017-04-15T03:12:24.022Z,75.70
2017-04-15T03:13:24.146Z,75.60
2017-04-15T03:14:24.163Z,75.60
2017-04-15T03:15:24.183Z,75.60
2017-04-15T03:16:24.594Z,76.30
2017-04-15T03:17:24.653Z,76.20
2017-04-15T03:18:25.433Z,75.70
2017-04-15T03:19:25.468Z,75.60
2017-04-15T03:20:25.517Z,75.90
2017-04-15T03:21:25.841Z,76.90
2017-04-15T03:22:25.851Z,76.70
2017-04-15T03:23:26.661Z,76.90
2017-04-15T03:24:26.729Z,77.20
2017-04-15T03:25:26.742Z,76.90
2017-04-15T03:26:27.107Z,76.20
2017-04-15T03:27:27.890Z,76.20
2017-04-15T03:28:27.937Z,75.70
2017-04-15T03:29:28.701Z,77.10
2017-04-15T03:30:28.862Z,77.70
2017-04-15T03:31:29.287Z,78.10
2017-04-15T03:32:29.514Z,78.30
2017-04-15T03:33:30.302Z,78.10
2017-04-15T03:34:30.358Z,77.90
2017-04-15T03:35:30.405Z,77.90
2017-04-15T03:36:30.729Z,78.60
2017-04-15T03:37:30.860Z,77.80
2017-04-15T03:38:30.890Z,78.00
2017-04-15T03:39:30.998Z,78.50
2017-04-15T03:40:31.019Z,79.10
2017-04-15T03:41:31.379Z,79.10
2017-04-15T03:42:31.416Z,79.60
2017-04-15T03:43:31.528Z,79.50
2017-04-15T03:44:31.598Z,78.80
2017-04-15T03:45:31.641Z,78.60
2017-04-15T03:46:32.760Z,79.20
2017-04-15T03:47:33.000Z,78.80
2017-04-15T03:48:33.042Z,79.40
2017-04-15T03:49:33.566Z,79.40
2017-04-15T03:50:33.614Z,79.30
2017-04-15T03:51:34.961Z,79.50
2017-04-15T03:52:35.022Z,79.30
2017-04-15T03:53:35.091Z,79.30
2017-04-15T03:54:35.218Z,79.70
2017-04-15T03:55:35.265Z,79.90
2017-04-15T03:56:35.607Z,79.20
2017-04-15T03:57:35.632Z,79.60
2017-04-15T03:58:35.700Z,79.60
2017-04-15T03:59:35.698Z,79.30
2017-04-15T04:00:35.772Z,78.90
2017-04-15T04:01:36.137Z,79.70
2017-04-15T04:02:36.172Z,80.00
2017-04-15T04:03:36.265Z,79.40
2017-04-15T04:04:36.374Z,79.90
2017-04-15T04:05:36.382Z,79.40
2017-04-15T04:06:36.690Z,80.10
2017-04-15T04:07:36.755Z,79.60
2017-04-15T04:08:36.768Z,79.50
2017-04-15T04:09:36.778Z,79.50
2017-04-15T04:10:36.826Z,79.70
2017-04-15T04:11:37.163Z,80.10
2017-04-15T04:12:37.181Z,79.70
2017-04-15T04:13:37.259Z,80.00
2017-04-15T04:14:37.501Z,79.70
2017-04-15T04:15:37.653Z,80.00
2017-04-15T04:16:38.081Z,79.90
2017-04-15T04:17:38.850Z,79.70
2017-04-15T04:18:38.937Z,80.20
2017-04-15T04:19:39.113Z,80.50
2017-04-15T04:20:39.232Z,80.70
2017-04-15T04:21:40.454Z,79.90
2017-04-15T04:22:40.530Z,80.50
2017-04-15T04:23:41.311Z,79.50
2017-04-15T04:24:41.450Z,80.00
2017-04-15T04:25:41.673Z,80.70
2017-04-15T04:26:42.028Z,80.30
2017-04-15T04:27:42.244Z,80.50
2017-04-15T04:28:43.064Z,80.40
2017-04-15T04:29:45.939Z,80.10
2017-04-15T04:30:45.994Z,80.20
2017-04-15T04:31:46.430Z,80.00
2017-04-15T04:32:46.606Z,80.60
2017-04-15T04:33:46.685Z,79.70
2017-04-15T04:34:46.917Z,80.00
2017-04-15T04:35:46.918Z,80.20
2017-04-15T04:36:47.342Z,80.40
2017-04-15T04:37:47.360Z,80.20
2017-04-15T04:38:47.395Z,80.20
2017-04-15T04:39:47.423Z,80.60
2017-04-15T04:40:47.577Z,80.40
2017-04-15T04:41:47.962Z,80.30
2017-04-15T04:42:48.832Z,80.20
2017-04-15T04:43:48.855Z,80.50
2017-04-15T04:44:49.054Z,80.40
2017-04-15T04:45:49.148Z,80.30
2017-04-15T04:46:49.531Z,80.10
2017-04-15T04:47:49.527Z,80.40
2017-04-15T04:48:49.653Z,80.70
2017-04-15T04:49:50.425Z,80.40
2017-04-15T04:50:50.840Z,80.70
2017-04-15T04:51:51.174Z,80.50
2017-04-15T04:52:51.334Z,80.40
2017-04-15T04:53:51.413Z,79.90
2017-04-15T04:54:51.406Z,79.80
2017-04-15T04:55:51.455Z,80.20
2017-04-15T04:56:51.859Z,80.10
2017-04-15T04:57:51.866Z,80.40
2017-04-15T04:58:51.929Z,80.50
2017-04-15T04:59:51.922Z,80.30
2017-04-15T05:00:51.986Z,79.90
2017-04-15T05:01:53.110Z,79.60
2017-04-15T05:02:53.150Z,80.20
2017-04-15T05:03:53.162Z,80.30
2017-04-15T05:04:53.191Z,79.90
2017-04-15T05:05:53.265Z,79.90
2017-04-15T05:06:53.643Z,80.10
2017-04-15T05:07:53.697Z,80.10
2017-04-15T05:08:53.702Z,80.10
2017-04-15T05:09:53.785Z,79.70
2017-04-15T05:10:53.963Z,79.90
2017-04-15T05:11:55.013Z,79.70
2017-04-15T05:12:55.785Z,80.00
2017-04-15T05:13:55.960Z,80.10
2017-04-15T05:14:56.743Z,80.30
2017-04-15T05:15:56.747Z,80.30
2017-04-15T05:16:57.095Z,80.10
2017-04-15T05:17:57.857Z,79.80
2017-04-15T05:18:57.900Z,80.30
2017-04-15T05:19:57.922Z,80.10
2017-04-15T05:20:57.898Z,80.20
2017-04-15T05:21:58.246Z,79.80
2017-04-15T05:22:58.250Z,80.00
2017-04-15T05:23:58.218Z,79.80
2017-04-15T05:24:58.254Z,80.10
2017-04-15T05:25:58.257Z,80.50
2017-04-15T05:26:58.576Z,80.10
2017-04-15T05:27:58.692Z,80.30
2017-04-15T05:28:58.795Z,80.20
2017-04-15T05:29:58.804Z,80.00
2017-04-15T05:30:58.820Z,80.40
2017-04-15T05:31:59.126Z,80.60
2017-04-15T05:32:59.210Z,80.40
2017-04-15T05:33:59.306Z,80.30
2017-04-15T05:34:59.398Z,80.40
2017-04-15T05:35:59.479Z,80.80
2017-04-15T05:36:58.770Z,80.80
2017-04-15T05:37:58.863Z,80.30
2017-04-15T05:38:59.647Z,80.80
2017-04-15T05:39:59.758Z,80.60
2017-04-15T05:40:59.767Z,80.50
2017-04-15T05:41:59.757Z,80.60
2017-04-15T05:43:00.132Z,80.30
2017-04-15T05:44:00.942Z,80.20
2017-04-15T05:45:00.969Z,80.10
2017-04-15T05:46:01.759Z,80.10
2017-04-15T05:47:02.777Z,81.00
2017-04-15T05:48:02.862Z,81.20
2017-04-15T05:49:03.025Z,80.90
2017-04-15T05:50:03.145Z,80.70
2017-04-15T05:51:03.266Z,80.60
2017-04-15T05:52:04.045Z,80.70
2017-04-15T05:53:05.233Z,81.20
2017-04-15T05:54:05.302Z,81.30
2017-04-15T05:55:05.384Z,80.50
2017-04-15T05:56:06.155Z,80.30
2017-04-15T05:57:06.179Z,80.60
2017-04-15T05:58:06.528Z,80.60
2017-04-15T05:59:06.566Z,80.20
2017-04-15T06:00:06.639Z,80.50
2017-04-15T06:01:06.691Z,80.20
2017-04-15T06:02:07.449Z,80.30
2017-04-15T06:03:07.907Z,80.30
2017-04-15T06:04:08.059Z,80.30
2017-04-15T06:05:08.161Z,80.70
2017-04-15T06:06:08.897Z,80.60
2017-04-15T06:07:08.934Z,80.50
2017-04-15T06:08:09.298Z,80.90
2017-04-15T06:09:09.412Z,80.90
2017-04-15T06:10:10.141Z,80.70
2017-04-15T06:11:10.894Z,80.30
2017-04-15T06:12:10.935Z,80.50
2017-04-15T06:13:12.080Z,80.70
2017-04-15T06:14:12.102Z,80.70
2017-04-15T06:15:12.188Z,80.70
2017-04-15T06:16:12.186Z,80.70
2017-04-15T06:17:12.225Z,80.30
2017-04-15T06:18:13.258Z,80.00
2017-04-15T06:19:14.135Z,80.50
2017-04-15T06:20:14.274Z,80.20
2017-04-15T06:21:14.321Z,80.30
2017-04-15T06:22:14.346Z,80.00
2017-04-15T06:23:14.713Z,80.10
2017-04-15T06:24:14.695Z,80.50
2017-04-15T06:25:15.505Z,80.10
2017-04-15T06:26:15.534Z,79.90
2017-04-15T06:27:15.553Z,79.40
2017-04-15T06:28:15.881Z,79.40
2017-04-15T06:29:16.650Z,80.10
2017-04-15T06:30:16.699Z,80.00
2017-04-15T06:31:16.822Z,79.30
2017-04-15T06:32:16.881Z,79.30
2017-04-15T06:33:17.406Z,78.60
2017-04-15T06:34:17.387Z,79.60
2017-04-15T06:35:17.491Z,78.90
2017-04-15T06:36:17.529Z,78.80
2017-04-15T06:37:17.697Z,78.70
2017-04-15T06:38:18.139Z,79.00
2017-04-15T06:39:18.302Z,78.60
2017-04-15T06:40:19.143Z,79.00
2017-04-15T06:41:19.131Z,79.20
2017-04-15T06:42:19.117Z,77.80
2017-04-15T06:43:19.574Z,77.60
2017-04-15T06:44:21.034Z,78.20
2017-04-15T06:45:21.057Z,77.90
2017-04-15T06:46:21.082Z,78.40
2017-04-15T06:47:27.585Z,77.90
2017-04-15T06:48:28.382Z,77.60
2017-04-15T06:49:28.450Z,77.80
2017-04-15T06:50:28.438Z,77.90
2017-04-15T06:51:28.497Z,77.60
2017-04-15T06:52:29.157Z,77.20
2017-04-15T06:53:29.551Z,78.10
2017-04-15T06:54:29.554Z,78.10
2017-04-15T06:55:29.733Z,77.80
2017-04-15T06:56:29.846Z,77.10
2017-04-15T06:57:29.909Z,77.00
2017-04-15T06:58:30.345Z,77.00
2017-04-15T06:59:30.372Z,77.60
2017-04-15T07:00:30.433Z,78.10
2017-04-15T07:01:30.554Z,78.20
2017-04-15T07:02:30.573Z,77.10
2017-04-15T07:03:30.945Z,77.00
2017-04-15T07:04:31.163Z,77.10
2017-04-15T07:05:31.931Z,77.10
2017-04-15T07:06:32.037Z,77.20
2017-04-15T07:07:32.075Z,77.10
2017-04-15T07:08:32.638Z,77.20
2017-04-15T07:09:32.804Z,77.10
2017-04-15T07:11:33.915Z,76.20
2017-04-15T07:12:34.051Z,75.90
2017-04-15T07:13:34.580Z,76.80
2017-04-15T07:14:34.620Z,76.30
2017-04-15T07:15:34.648Z,76.30
2017-04-15T07:16:34.672Z,76.20
2017-04-15T07:17:34.997Z,76.10
2017-04-15T07:18:35.462Z,76.60
2017-04-15T07:19:35.545Z,76.10
2017-04-15T07:20:36.548Z,76.40
2017-04-15T07:21:36.632Z,75.90
2017-04-15T07:22:36.699Z,74.90
2017-04-15T07:23:37.019Z,74.70
2017-04-15T07:24:37.822Z,75.60
2017-04-15T07:25:37.870Z,75.10
2017-04-15T07:26:37.906Z,75.60
2017-04-15T07:27:37.967Z,75.30
2017-04-15T07:28:38.382Z,75.60
2017-04-15T07:29:38.517Z,74.50
2017-04-15T07:30:38.898Z,74.30
2017-04-15T07:31:40.696Z,74.30
2017-04-15T07:32:40.790Z,74.30
2017-04-15T07:33:41.178Z,74.90
2017-04-15T07:34:41.254Z,75.00
2017-04-15T07:35:41.370Z,75.00
2017-04-15T07:36:41.451Z,74.10
2017-04-15T07:37:41.503Z,74.60
2017-04-15T07:38:43.076Z,75.10
2017-04-15T07:39:43.175Z,75.30
2017-04-15T07:40:45.018Z,75.50
2017-04-15T07:41:45.163Z,75.80
2017-04-15T07:42:45.230Z,77.20
2017-04-15T07:43:46.363Z,77.30
2017-04-15T07:44:47.291Z,77.30
2017-04-15T07:45:48.093Z,77.30
2017-04-15T07:46:48.138Z,77.30
2017-04-15T07:47:48.225Z,77.10
2017-04-15T07:48:48.643Z,77.30
2017-04-15T07:49:49.602Z,78.10
2017-04-15T07:50:49.674Z,78.10
2017-04-15T07:51:49.806Z,77.70
2017-04-15T07:52:49.934Z,77.70
2017-04-15T07:53:50.523Z,78.20
2017-04-15T07:54:51.428Z,78.00
2017-04-15T07:55:51.501Z,78.00
2017-04-15T07:56:51.560Z,77.80
2017-04-15T07:57:51.599Z,78.00
2017-04-15T07:58:52.097Z,77.60
2017-04-15T07:59:52.262Z,77.20
2017-04-15T08:00:52.461Z,78.00
2017-04-15T08:01:52.517Z,78.60
2017-04-15T08:02:53.334Z,77.90
2017-04-15T08:03:53.631Z,77.80
2017-04-15T08:04:53.787Z,77.30
2017-04-15T08:05:54.005Z,77.30
2017-04-15T08:06:54.232Z,77.30
2017-04-15T08:07:54.282Z,77.20
2017-04-15T08:08:54.840Z,77.20
2017-04-15T08:09:55.036Z,77.20
2017-04-15T08:10:55.769Z,76.30
2017-04-15T08:11:55.909Z,76.30
2017-04-15T08:12:55.995Z,76.30
2017-04-15T08:13:56.374Z,76.30
2017-04-15T08:14:56.382Z,76.20
2017-04-15T08:15:57.212Z,77.00
2017-04-15T08:16:58.025Z,76.30
2017-04-15T08:17:58.082Z,77.20
2017-04-15T08:18:58.562Z,76.80
2017-04-15T08:19:58.673Z,77.00
2017-04-15T08:20:58.814Z,76.70
2017-04-15T08:21:58.861Z,77.30
2017-04-15T08:22:58.967Z,77.20
2017-04-15T08:23:59.410Z,77.20
2017-04-15T08:24:59.906Z,77.20
2017-04-15T08:25:59.951Z,76.30
2017-04-15T08:27:00.024Z,76.70
2017-04-15T08:28:00.207Z,75.70
2017-04-15T08:29:00.578Z,74.50
2017-04-15T08:30:00.592Z,75.80
2017-04-15T08:31:00.672Z,75.10
2017-04-15T08:32:00.726Z,73.40
2017-04-15T08:33:00.944Z,73.40
2017-04-15T08:34:01.833Z,72.60
2017-04-15T08:35:01.966Z,73.60
2017-04-15T08:36:02.009Z,73.50
2017-04-15T08:37:02.083Z,72.40
2017-04-15T08:38:02.176Z,73.40
2017-04-15T08:39:03.330Z,72.10
2017-04-15T08:40:03.409Z,72.50
2017-04-15T08:41:03.693Z,72.50
2017-04-15T08:42:03.792Z,72.60
2017-04-15T08:43:04.672Z,73.20
2017-04-15T08:44:05.184Z,72.10
2017-04-15T08:45:06.549Z,71.90
2017-04-15T08:46:06.608Z,72.80
2017-04-15T08:48:07.251Z,72.50
2017-04-15T08:49:07.775Z,72.70
2017-04-15T08:50:08.596Z,71.90
2017-04-15T08:51:09.433Z,72.40
2017-04-15T08:52:10.205Z,71.90
2017-04-15T08:53:10.298Z,71.60
2017-04-15T08:54:10.804Z,71.80
2017-04-15T08:55:10.789Z,71.00
2017-04-15T08:56:11.614Z,70.60
2017-04-15T08:57:12.382Z,70.60
2017-04-15T08:58:12.410Z,70.50
2017-04-15T08:59:12.841Z,70.80
2017-04-15T09:00:12.968Z,70.90
2017-04-15T09:01:13.985Z,70.80
2017-04-15T09:02:14.148Z,70.30
2017-04-15T09:03:14.129Z,70.20
2017-04-15T09:04:14.534Z,70.30
2017-04-15T09:05:14.711Z,71.40
2017-04-15T09:06:14.708Z,70.40
2017-04-15T09:07:14.843Z,70.70
2017-04-15T09:08:15.037Z,71.30
2017-04-15T09:09:15.478Z,70.40
2017-04-15T09:10:15.939Z,68.40
2017-04-15T09:11:16.115Z,69.10
2017-04-15T09:12:16.248Z,68.40
2017-04-15T09:13:16.387Z,68.40
2017-04-15T09:14:16.844Z,68.30
2017-04-15T09:15:17.052Z,68.40
2017-04-15T09:16:18.437Z,69.60
2017-04-15T09:17:18.635Z,68.30
2017-04-15T09:18:18.726Z,68.20
2017-04-15T09:19:19.117Z,68.20
2017-04-15T09:20:19.288Z,68.50
2017-04-15T09:21:21.770Z,68.10
2017-04-15T09:22:22.018Z,67.70
2017-04-15T09:23:22.160Z,67.90
2017-04-15T09:24:22.548Z,68.00
2017-04-15T09:25:22.608Z,67.90
2017-04-15T09:26:22.678Z,67.80
2017-04-15T09:27:27.556Z,67.90
2017-04-15T09:28:27.696Z,67.80
2017-04-15T09:29:28.104Z,67.90
2017-04-15T09:30:29.065Z,67.90
2017-04-15T09:31:29.375Z,65.20
2017-04-15T09:32:29.526Z,67.00
2017-04-15T09:33:29.663Z,65.70
2017-04-15T09:34:30.310Z,64.40
2017-04-15T09:35:31.104Z,64.50
2017-04-15T09:36:31.289Z,65.40
2017-04-15T09:37:31.397Z,64.00
2017-04-15T09:38:31.815Z,64.80
2017-04-15T09:39:32.253Z,62.20
2017-04-15T09:40:33.195Z,62.00
2017-04-15T09:41:34.101Z,62.00
2017-04-15T09:42:35.490Z,63.10
2017-04-15T09:43:35.793Z,62.70
2017-04-15T09:44:36.223Z,63.40
2017-04-15T09:45:36.301Z,62.30
2017-04-15T09:46:36.380Z,63.10
2017-04-15T09:47:36.567Z,62.50
2017-04-15T09:48:36.753Z,61.80
2017-04-15T09:49:37.130Z,62.20
2017-04-15T09:50:37.258Z,62.30
2017-04-15T09:51:37.343Z,62.00
2017-04-15T09:52:37.388Z,59.40
2017-04-15T09:53:37.478Z,60.40
2017-04-15T09:54:38.010Z,59.30
2017-04-15T09:55:38.079Z,58.10
2017-04-15T09:56:38.140Z,58.60
2017-04-15T09:57:38.371Z,59.00
2017-04-15T09:58:38.448Z,58.40
2017-04-15T09:59:38.951Z,59.70
2017-04-15T10:00:39.046Z,58.50
2017-04-15T10:01:39.223Z,57.60
2017-04-15T10:02:39.353Z,57.40
2017-04-15T10:03:39.453Z,58.60
2017-04-15T10:04:39.960Z,58.70
2017-04-15T10:05:40.146Z,59.70
2017-04-15T10:06:40.242Z,60.40
2017-04-15T10:07:40.272Z,59.80
2017-04-15T10:08:40.374Z,59.80
2017-04-15T10:09:40.713Z,60.00
2017-04-15T10:10:40.791Z,59.80
2017-04-15T10:11:40.845Z,59.70
2017-04-15T10:12:40.967Z,61.70
2017-04-15T10:13:41.099Z,61.90
2017-04-15T10:14:41.686Z,59.40
2017-04-15T10:15:41.877Z,59.20
2017-04-15T10:16:41.949Z,62.10
2017-04-15T10:17:42.090Z,61.10
2017-04-15T10:18:42.189Z,61.70
2017-04-15T10:19:42.624Z,62.30
2017-04-15T10:20:43.685Z,64.60
2017-04-15T10:21:43.737Z,61.20
2017-04-15T10:32:04.000Z,62.90
2017-04-15T10:33:04.169Z,69.80
2017-04-15T10:34:04.901Z,70.20
2017-04-15T10:35:04.966Z,70.50
2017-04-15T10:36:05.396Z,68.50
2017-04-15T10:37:05.790Z,67.60
2017-04-15T10:38:06.619Z,69.60
2017-04-15T10:39:07.576Z,66.10
2017-04-15T10:40:07.818Z,66.80
2017-04-15T10:41:08.185Z,66.80
2017-04-15T10:42:08.339Z,68.30
2017-04-15T10:43:12.541Z,66.50
2017-04-15T10:44:12.549Z,69.00
2017-04-15T10:45:12.830Z,66.80
2017-04-15T10:46:13.203Z,64.90
2017-04-15T10:47:13.344Z,66.80
2017-04-15T10:48:14.421Z,66.40
2017-04-15T10:49:15.067Z,67.60
2017-04-15T10:50:16.969Z,67.40
2017-04-15T10:51:17.519Z,66.80
2017-04-15T10:52:18.653Z,67.70
2017-04-15T10:53:18.746Z,67.70
2017-04-15T10:54:18.777Z,68.60
2017-04-15T10:55:18.843Z,66.80
2017-04-15T10:56:19.234Z,65.10
2017-04-15T10:57:19.399Z,66.00
2017-04-15T10:58:19.527Z,67.40
2017-04-15T10:59:19.634Z,70.30
2017-04-15T11:00:19.857Z,67.30
2017-04-15T11:01:20.286Z,64.00
2017-04-15T11:02:21.299Z,64.70
2017-04-15T11:03:21.519Z,64.80
2017-04-15T11:04:21.718Z,63.40
2017-04-15T11:05:22.154Z,62.10
2017-04-15T11:06:23.632Z,58.90
2017-04-15T11:07:23.893Z,60.30
2017-04-15T11:08:30.706Z,59.90
2017-04-15T11:09:37.204Z,58.80
2017-04-15T11:10:37.348Z,56.90
2017-04-15T11:11:38.582Z,57.20
2017-04-15T11:13:02.868Z,57.10
2017-04-15T11:14:08.315Z,56.20
2017-04-15T11:15:08.812Z,54.30
2017-04-15T11:16:08.946Z,53.70
2017-04-15T11:17:09.469Z,54.50
2017-04-15T11:18:13.312Z,54.00
2017-04-15T11:19:13.977Z,53.90
2017-04-15T11:20:14.035Z,52.50
2017-04-15T11:21:14.918Z,52.40
2017-04-15T11:22:15.118Z,53.20
2017-04-15T11:23:17.388Z,52.00
2017-04-15T11:24:17.691Z,53.20
2017-04-15T11:25:17.860Z,54.40
2017-04-15T11:26:17.949Z,53.30
2017-04-15T11:27:18.430Z,51.00
2017-04-15T11:28:18.639Z,49.50
2017-04-15T11:29:18.681Z,49.80
2017-04-15T11:30:19.251Z,50.30
2017-04-15T11:31:19.323Z,50.00
2017-04-15T11:32:19.878Z,50.10
2017-04-15T11:33:20.055Z,49.20
2017-04-15T11:34:20.091Z,49.10
2017-04-15T11:35:20.906Z,50.70
2017-04-15T11:36:20.953Z,49.70
2017-04-15T11:37:21.566Z,50.80
2017-04-15T11:38:22.487Z,50.80
2017-04-15T11:39:22.657Z,50.90
2017-04-15T11:40:22.682Z,50.20
2017-04-15T11:41:22.770Z,51.00
2017-04-15T11:42:23.209Z,51.00
2017-04-15T11:43:23.372Z,52.10
2017-04-15T11:44:23.422Z,51.10
2017-04-15T11:45:23.555Z,52.40
2017-04-15T11:46:23.721Z,51.20
2017-04-15T11:47:24.109Z,50.60
2017-04-15T11:48:24.154Z,51.80
2017-04-15T11:49:24.190Z,51.10
2017-04-15T11:50:24.301Z,51.20
2017-04-15T11:51:24.447Z,50.50
2017-04-15T11:52:24.990Z,50.50
2017-04-15T11:53:25.079Z,50.60
2017-04-15T11:54:25.250Z,50.60
2017-04-15T11:55:25.317Z,50.70
2017-04-15T11:56:25.370Z,50.10
2017-04-15T11:57:25.767Z,50.40
2017-04-15T11:58:26.642Z,49.50
2017-04-15T11:59:26.701Z,49.60
2017-04-15T12:00:26.836Z,49.40
2017-04-15T12:01:26.914Z,49.40
2017-04-15T12:02:27.732Z,50.20
2017-04-15T12:03:27.994Z,50.80
2017-04-15T12:04:28.104Z,50.00
2017-04-15T12:05:28.139Z,49.90
2017-04-15T12:06:28.301Z,50.40
2017-04-15T12:07:28.799Z,51.90
2017-04-15T12:08:29.602Z,50.60
2017-04-15T12:09:29.714Z,50.50
2017-04-15T12:10:29.757Z,50.50
2017-04-15T12:11:29.997Z,50.50
2017-04-15T12:12:30.478Z,50.50
2017-04-15T12:13:30.596Z,51.70
2017-04-15T12:14:30.694Z,51.10
2017-04-15T12:15:31.590Z,50.50
2017-04-15T12:16:31.692Z,50.40
2017-04-15T12:17:32.182Z,52.00
2017-04-15T12:18:32.273Z,52.70
2017-04-15T12:19:32.353Z,54.90
2017-04-15T12:20:32.394Z,57.10
2017-04-15T12:21:32.471Z,58.90
2017-04-15T12:22:32.989Z,61.20
2017-04-15T12:23:33.074Z,63.50
2017-04-15T12:24:33.218Z,63.80
2017-04-15T12:25:33.270Z,65.80
2017-04-15T12:26:33.414Z,67.40
2017-04-15T12:27:33.846Z,69.10
2017-04-15T12:28:33.926Z,66.40
2017-04-15T12:29:34.053Z,68.60
2017-04-15T12:30:34.216Z,68.40
2017-04-15T12:31:34.328Z,69.20
2017-04-15T12:32:35.101Z,67.10
2017-04-15T12:33:35.369Z,68.40
2017-04-15T12:34:35.967Z,68.60
2017-04-15T12:35:36.115Z,69.20
2017-04-15T12:36:36.200Z,69.40
2017-04-15T12:37:36.735Z,67.10
2017-04-15T12:38:37.195Z,69.30
2017-04-15T12:39:38.025Z,69.60
2017-04-15T12:40:38.082Z,68.80
2017-04-15T12:41:38.881Z,68.00
2017-04-15T12:42:39.211Z,68.00
2017-04-15T12:43:39.434Z,66.80
2017-04-15T12:44:39.590Z,67.50
2017-04-15T12:45:40.412Z,67.60
2017-04-15T12:46:41.284Z,66.30
2017-04-15T12:47:41.681Z,66.70
2017-04-15T12:48:41.745Z,65.90
2017-04-15T12:49:42.567Z,63.60
2017-04-15T12:50:42.733Z,64.70
2017-04-15T12:51:42.879Z,64.90
2017-04-15T12:52:43.263Z,63.10
2017-04-15T12:53:43.855Z,63.80
2017-04-15T12:54:44.050Z,62.30
2017-04-15T12:55:44.146Z,60.60
2017-04-15T12:56:44.218Z,59.50
2017-04-15T12:57:44.866Z,60.20
2017-04-15T12:58:45.003Z,59.10
2017-04-15T12:59:45.781Z,59.60
2017-04-15T13:00:45.862Z,60.30
2017-04-15T13:01:45.922Z,57.90
2017-04-15T13:02:46.368Z,57.30
2017-04-15T13:03:46.544Z,57.80
2017-04-15T13:04:46.652Z,58.90
2017-04-15T13:05:46.731Z,58.00
2017-04-15T13:06:46.827Z,56.30
2017-04-15T13:07:47.643Z,55.10
2017-04-15T13:08:47.731Z,55.30